ERCOS LUKV-LUKV
Flight info
| Callsign | ERCOS |
|---|---|
| Flight time | 0h 40m |
| Altitude | 1500 |
| Route | LUKV NOWAS NORCU LUKK SUDAX LUKH SUDAX NORCU NOWAS LUKV |
| Aircraft | C172/L-V/N |
Departure
| Time | 2026-05-04 14:17 |
|---|---|
| Airport | Vadul lui Voda Airfield (LUKV) |
Arrival
| Time | 2026-05-04 14:57 |
|---|---|
| Airport | Vadul lui Voda Airfield (LUKV) |
| Time | Latitude | Longitude | Altitude | Speed | Heading |
|---|---|---|---|---|---|
| 2026-05-04 14:13 | 47.06407 | 29.09358 | 538 ft | 0 kts | 17° |
| 2026-05-04 14:15 | 47.06510 | 29.09408 | 542 ft | 38 kts | 18° |
| 2026-05-04 14:16 | 47.07359 | 29.09638 | 770 ft | 71 kts | 18° |
| 2026-05-04 14:16 | 47.07871 | 29.09764 | 938 ft | 80 kts | 14° |
| 2026-05-04 14:17 | 47.08976 | 29.10205 | 1185 ft | 82 kts | 34° |
| 2026-05-04 14:17 | 47.09394 | 29.10850 | 1282 ft | 93 kts | 58° |
| 2026-05-04 14:17 | 47.09508 | 29.12676 | 1385 ft | 101 kts | 99° |
| 2026-05-04 14:18 | 47.09144 | 29.13530 | 1403 ft | 107 kts | 132° |
| 2026-05-04 14:18 | 47.07735 | 29.14294 | 1452 ft | 108 kts | 185° |
| 2026-05-04 14:19 | 47.06418 | 29.13109 | 1381 ft | 110 kts | 240° |
| 2026-05-04 14:19 | 47.06076 | 29.12106 | 1416 ft | 114 kts | 248° |
| 2026-05-04 14:19 | 47.05737 | 29.11032 | 1368 ft | 116 kts | 249° |
| 2026-05-04 14:19 | 47.05429 | 29.09971 | 1382 ft | 110 kts | 254° |
| 2026-05-04 14:20 | 47.05138 | 29.08931 | 1370 ft | 111 kts | 252° |
| 2026-05-04 14:20 | 47.04831 | 29.07875 | 1263 ft | 115 kts | 252° |
| 2026-05-04 14:20 | 47.04526 | 29.06837 | 1419 ft | 107 kts | 251° |
| 2026-05-04 14:21 | 47.03847 | 29.04861 | 1520 ft | 114 kts | 241° |
| 2026-05-04 14:21 | 47.03314 | 29.03970 | 1543 ft | 118 kts | 221° |
| 2026-05-04 14:21 | 47.02548 | 29.03504 | 1530 ft | 123 kts | 194° |
| 2026-05-04 14:21 | 47.01723 | 29.03237 | 1547 ft | 121 kts | 192° |
| 2026-05-04 14:22 | 47.00940 | 29.02794 | 1524 ft | 120 kts | 203° |
| 2026-05-04 14:22 | 47.00205 | 29.02259 | 1544 ft | 117 kts | 206° |
| 2026-05-04 14:22 | 46.99426 | 29.01799 | 1490 ft | 122 kts | 202° |
| 2026-05-04 14:22 | 46.98645 | 29.01372 | 1472 ft | 119 kts | 201° |
| 2026-05-04 14:23 | 46.97253 | 29.00043 | 1512 ft | 121 kts | 220° |
| 2026-05-04 14:23 | 46.96594 | 28.99249 | 1519 ft | 122 kts | 230° |
| 2026-05-04 14:23 | 46.96222 | 28.98154 | 1542 ft | 121 kts | 264° |
| 2026-05-04 14:24 | 46.96086 | 28.96951 | 1502 ft | 119 kts | 264° |
| 2026-05-04 14:24 | 46.95910 | 28.95780 | 1527 ft | 116 kts | 260° |
| 2026-05-04 14:24 | 46.95708 | 28.94654 | 1514 ft | 116 kts | 259° |
| 2026-05-04 14:24 | 46.95423 | 28.93524 | 1480 ft | 120 kts | 253° |
| 2026-05-04 14:25 | 46.95137 | 28.92411 | 1526 ft | 115 kts | 253° |
| 2026-05-04 14:25 | 46.94672 | 28.90125 | 1490 ft | 120 kts | 261° |
| 2026-05-04 14:25 | 46.94453 | 28.88951 | 1450 ft | 119 kts | 255° |
| 2026-05-04 14:26 | 46.94132 | 28.87866 | 1427 ft | 114 kts | 235° |
| 2026-05-04 14:26 | 46.93461 | 28.87265 | 1384 ft | 117 kts | 191° |
| 2026-05-04 14:26 | 46.92679 | 28.87306 | 1297 ft | 107 kts | 149° |
| 2026-05-04 14:26 | 46.92362 | 28.88098 | 1075 ft | 88 kts | 78° |
| 2026-05-04 14:27 | 46.92533 | 28.88963 | 890 ft | 89 kts | 72° |
| 2026-05-04 14:27 | 46.92689 | 28.89839 | 642 ft | 87 kts | 80° |
| 2026-05-04 14:27 | 46.92724 | 28.90666 | 459 ft | 74 kts | 85° |
| 2026-05-04 14:27 | 46.92734 | 28.91323 | 402 ft | 53 kts | 84° |
| 2026-05-04 14:28 | 46.92758 | 28.91868 | 420 ft | 64 kts | 84° |
| 2026-05-04 14:28 | 46.92765 | 28.92610 | 498 ft | 81 kts | 86° |
| 2026-05-04 14:28 | 46.92777 | 28.93447 | 677 ft | 82 kts | 89° |
| 2026-05-04 14:28 | 46.92778 | 28.94281 | 904 ft | 82 kts | 89° |
| 2026-05-04 14:29 | 46.92467 | 28.96043 | 1157 ft | 102 kts | 123° |
| 2026-05-04 14:29 | 46.91124 | 28.96440 | 1403 ft | 118 kts | 215° |
| 2026-05-04 14:30 | 46.90542 | 28.95587 | 1523 ft | 117 kts | 229° |
| 2026-05-04 14:30 | 46.89933 | 28.94760 | 1546 ft | 126 kts | 221° |
| 2026-05-04 14:30 | 46.88560 | 28.93226 | 1516 ft | 119 kts | 216° |
| 2026-05-04 14:31 | 46.87878 | 28.92550 | 1599 ft | 119 kts | 214° |
| 2026-05-04 14:31 | 46.86399 | 28.91361 | 1530 ft | 117 kts | 200° |
| 2026-05-04 14:32 | 46.84819 | 28.90662 | 1396 ft | 122 kts | 193° |
| 2026-05-04 14:32 | 46.84012 | 28.90302 | 1371 ft | 121 kts | 199° |
| 2026-05-04 14:32 | 46.83222 | 28.89950 | 1350 ft | 116 kts | 196° |
| 2026-05-04 14:32 | 46.82450 | 28.89763 | 1285 ft | 111 kts | 176° |
| 2026-05-04 14:33 | 46.81678 | 28.89789 | 1169 ft | 112 kts | 176° |
| 2026-05-04 14:33 | 46.80942 | 28.89870 | 1116 ft | 97 kts | 160° |
| 2026-05-04 14:33 | 46.80499 | 28.90416 | 1103 ft | 81 kts | 94° |
| 2026-05-04 14:33 | 46.80807 | 28.90935 | 1109 ft | 76 kts | 13° |
| 2026-05-04 14:34 | 46.81338 | 28.90968 | 1003 ft | 78 kts | 360° |
| 2026-05-04 14:34 | 46.81859 | 28.90744 | 816 ft | 79 kts | 359° |
| 2026-05-04 14:34 | 46.82395 | 28.90607 | 773 ft | 83 kts | 348° |
| 2026-05-04 14:34 | 46.82905 | 28.90402 | 652 ft | 71 kts | 355° |
| 2026-05-04 14:35 | 46.83343 | 28.90272 | 475 ft | 56 kts | 1° |
| 2026-05-04 14:35 | 46.83658 | 28.90186 | 492 ft | 55 kts | 344° |
| 2026-05-04 14:35 | 46.84097 | 28.89993 | 563 ft | 72 kts | 357° |
| 2026-05-04 14:35 | 46.84591 | 28.89929 | 730 ft | 71 kts | 14° |
| 2026-05-04 14:36 | 46.85024 | 28.90229 | 957 ft | 72 kts | 50° |
| 2026-05-04 14:36 | 46.85150 | 28.91009 | 1056 ft | 86 kts | 79° |
| 2026-05-04 14:36 | 46.84896 | 28.91834 | 1150 ft | 103 kts | 133° |
| 2026-05-04 14:36 | 46.84198 | 28.92155 | 1125 ft | 113 kts | 170° |
| 2026-05-04 14:37 | 46.83418 | 28.92183 | 1194 ft | 112 kts | 176° |
| 2026-05-04 14:37 | 46.82650 | 28.92149 | 1256 ft | 111 kts | 180° |
| 2026-05-04 14:37 | 46.81894 | 28.92111 | 1331 ft | 109 kts | 181° |
| 2026-05-04 14:37 | 46.81672 | 28.92103 | 1322 ft | 113 kts | 180° |
| 2026-05-04 14:38 | 46.81520 | 28.92098 | 1333 ft | 113 kts | 180° |
| 2026-05-04 14:38 | 46.80747 | 28.92060 | 1304 ft | 113 kts | 180° |
| 2026-05-04 14:38 | 46.80002 | 28.91794 | 1314 ft | 113 kts | 214° |
| 2026-05-04 14:38 | 46.79629 | 28.90855 | 1319 ft | 106 kts | 275° |
| 2026-05-04 14:39 | 46.79991 | 28.90116 | 1277 ft | 92 kts | 351° |
| 2026-05-04 14:39 | 46.80597 | 28.90291 | 1118 ft | 89 kts | 26° |
| 2026-05-04 14:39 | 46.81126 | 28.90680 | 992 ft | 79 kts | 21° |
| 2026-05-04 14:40 | 46.82138 | 28.90620 | 782 ft | 76 kts | 354° |
| 2026-05-04 14:40 | 46.82656 | 28.90502 | 668 ft | 77 kts | 353° |
| 2026-05-04 14:40 | 46.83153 | 28.90349 | 566 ft | 72 kts | 349° |
| 2026-05-04 14:40 | 46.83599 | 28.90179 | 489 ft | 52 kts | 351° |
| 2026-05-04 14:41 | 46.83981 | 28.90014 | 529 ft | 67 kts | 348° |
| 2026-05-04 14:41 | 46.84450 | 28.89843 | 637 ft | 68 kts | 9° |
| 2026-05-04 14:41 | 46.85448 | 28.89750 | 991 ft | 75 kts | 3° |
| 2026-05-04 14:42 | 46.86528 | 28.89902 | 1288 ft | 82 kts | 15° |
| 2026-05-04 14:42 | 46.87032 | 28.90264 | 1546 ft | 82 kts | 32° |
| 2026-05-04 14:42 | 46.87580 | 28.90643 | 1611 ft | 98 kts | 23° |
| 2026-05-04 14:43 | 46.88247 | 28.91039 | 1553 ft | 101 kts | 33° |
| 2026-05-04 14:43 | 46.88857 | 28.91500 | 1577 ft | 100 kts | 24° |
| 2026-05-04 14:43 | 46.89506 | 28.91901 | 1609 ft | 101 kts | 25° |
| 2026-05-04 14:43 | 46.90198 | 28.92198 | 1527 ft | 109 kts | 21° |
| 2026-05-04 14:44 | 46.90909 | 28.92546 | 1459 ft | 100 kts | 23° |
| 2026-05-04 14:44 | 46.91510 | 28.92877 | 1527 ft | 90 kts | 23° |
| 2026-05-04 14:44 | 46.92103 | 28.93218 | 1581 ft | 94 kts | 24° |
| 2026-05-04 14:44 | 46.92699 | 28.93506 | 1673 ft | 90 kts | 20° |
| 2026-05-04 14:45 | 46.93320 | 28.93784 | 1593 ft | 102 kts | 21° |
| 2026-05-04 14:45 | 46.93984 | 28.94076 | 1597 ft | 93 kts | 18° |
| 2026-05-04 14:45 | 46.94602 | 28.94335 | 1588 ft | 96 kts | 17° |
| 2026-05-04 14:45 | 46.95251 | 28.94588 | 1572 ft | 93 kts | 22° |
| 2026-05-04 14:46 | 46.95836 | 28.95013 | 1571 ft | 95 kts | 27° |
| 2026-05-04 14:46 | 46.96492 | 28.95216 | 1544 ft | 98 kts | 2° |
| 2026-05-04 14:46 | 46.97167 | 28.95129 | 1516 ft | 100 kts | 6° |
| 2026-05-04 14:46 | 46.97849 | 28.95166 | 1500 ft | 99 kts | 6° |
| 2026-05-04 14:47 | 46.98537 | 28.95157 | 1512 ft | 96 kts | 5° |
| 2026-05-04 14:47 | 46.99191 | 28.95148 | 1502 ft | 95 kts | 6° |
| 2026-05-04 14:47 | 46.99833 | 28.95290 | 1514 ft | 96 kts | 20° |
| 2026-05-04 14:47 | 47.00472 | 28.95569 | 1624 ft | 94 kts | 20° |
| 2026-05-04 14:48 | 47.01109 | 28.95710 | 1721 ft | 93 kts | 6° |
| 2026-05-04 14:48 | 47.01746 | 28.95741 | 1720 ft | 93 kts | 10° |
| 2026-05-04 14:48 | 47.02379 | 28.95947 | 1587 ft | 89 kts | 22° |
| 2026-05-04 14:48 | 47.02927 | 28.96268 | 1546 ft | 84 kts | 28° |
| 2026-05-04 14:49 | 47.03424 | 28.96721 | 1494 ft | 83 kts | 39° |
| 2026-05-04 14:49 | 47.03818 | 28.97341 | 1368 ft | 86 kts | 57° |
| 2026-05-04 14:49 | 47.04016 | 28.98183 | 1367 ft | 87 kts | 69° |
| 2026-05-04 14:49 | 47.04179 | 28.99007 | 1449 ft | 82 kts | 72° |
| 2026-05-04 14:50 | 47.04291 | 28.99841 | 1496 ft | 82 kts | 74° |
| 2026-05-04 14:50 | 47.04411 | 29.00687 | 1548 ft | 85 kts | 70° |
| 2026-05-04 14:50 | 47.04548 | 29.01558 | 1608 ft | 87 kts | 68° |
| 2026-05-04 14:50 | 47.04742 | 29.02427 | 1596 ft | 97 kts | 71° |
| 2026-05-04 14:51 | 47.04923 | 29.03401 | 1540 ft | 101 kts | 66° |
| 2026-05-04 14:51 | 47.05161 | 29.04317 | 1512 ft | 95 kts | 64° |
| 2026-05-04 14:51 | 47.05411 | 29.05225 | 1493 ft | 97 kts | 64° |
| 2026-05-04 14:51 | 47.05667 | 29.06115 | 1516 ft | 94 kts | 64° |
| 2026-05-04 14:52 | 47.05879 | 29.06998 | 1379 ft | 95 kts | 71° |
| 2026-05-04 14:52 | 47.06072 | 29.07950 | 1304 ft | 92 kts | 66° |
| 2026-05-04 14:52 | 47.06348 | 29.08731 | 1389 ft | 83 kts | 44° |
| 2026-05-04 14:52 | 47.06865 | 29.09120 | 1379 ft | 83 kts | 21° |
| 2026-05-04 14:53 | 47.07420 | 29.09387 | 1325 ft | 87 kts | 41° |
| 2026-05-04 14:53 | 47.07589 | 29.10237 | 1300 ft | 98 kts | 94° |
| 2026-05-04 14:53 | 47.07405 | 29.11235 | 1290 ft | 100 kts | 105° |
| 2026-05-04 14:53 | 47.07141 | 29.12146 | 1353 ft | 96 kts | 115° |
| 2026-05-04 14:54 | 47.06601 | 29.12758 | 1327 ft | 106 kts | 152° |
| 2026-05-04 14:54 | 47.05877 | 29.13048 | 1322 ft | 110 kts | 163° |
| 2026-05-04 14:54 | 47.05114 | 29.13262 | 1301 ft | 111 kts | 170° |
| 2026-05-04 14:54 | 47.04360 | 29.13279 | 1361 ft | 108 kts | 184° |
| 2026-05-04 14:55 | 47.03627 | 29.12960 | 1297 ft | 112 kts | 209° |
| 2026-05-04 14:55 | 47.03197 | 29.12081 | 1151 ft | 105 kts | 268° |
| 2026-05-04 14:55 | 47.03244 | 29.11066 | 1132 ft | 95 kts | 287° |
| 2026-05-04 14:55 | 47.03531 | 29.10324 | 1120 ft | 78 kts | 342° |
| 2026-05-04 14:56 | 47.04057 | 29.10288 | 998 ft | 79 kts | 11° |
| 2026-05-04 14:56 | 47.04613 | 29.10220 | 895 ft | 80 kts | 359° |
| 2026-05-04 14:56 | 47.05116 | 29.10182 | 731 ft | 66 kts | 352° |
| 2026-05-04 14:56 | 47.05554 | 29.10100 | 600 ft | 62 kts | 356° |
| 2026-05-04 14:57 | 47.05983 | 29.10040 | 526 ft | 60 kts | 359° |
| 2026-05-04 14:57 | 47.06327 | 29.09996 | 498 ft | 39 kts | 352° |
| 2026-05-04 14:57 | 47.06549 | 29.09940 | 490 ft | 26 kts | 348° |
| 2026-05-04 14:57 | 47.06687 | 29.09876 | 500 ft | 17 kts | 331° |
| 2026-05-04 14:58 | 47.06763 | 29.09788 | 514 ft | 13 kts | 320° |
| 2026-05-04 14:58 | 47.06848 | 29.09639 | 543 ft | 17 kts | 288° |
| 2026-05-04 14:58 | 47.06803 | 29.09524 | 549 ft | 13 kts | 212° |
| 2026-05-04 14:58 | 47.06791 | 29.09518 | 549 ft | 0 kts | 197° |